Decoded Metar for KGPH ( in ) (IATA:) | Meteo·Mobile Aviation Weather
aviador You're here:

KGPH Decoded Metar

in
Report Time2019-02-16 17:35:00
UTC Time2019-02-16 17:35:23
Flight Rules vfr VFR
Wind140° at 05 kt
W.Decomp.*RWY 18: 3.8 kt HW 3.2 kt LCW
W.Rank140° ranks 2
Current wind is below 140° avg. (5.3)
Visibility9999 m
Phenomena:N/A
Clouds:N/A
Expected CloudBase > 2,400 ft AGL from Temp-Dew spread
CeilingNone
Temp-6°C
Dew Point-12°C (63% RH)
AAT-11.0°C
QNH1017 hPa
Raw Report
KGPH 161735Z AUTO 14005KT 10SM M06/M12 A3004 RMK AO2=

Extra information for KGPH:More info

Social comments